sensor_id;sensor_type;location;lat;lon;timestamp;noise_LAeq;noise_LA_min;noise_LA_max;noise_LA01;noise_LA95
52872;Laerm;40124;52.198;9.902;2023-08-01T00:00:27;41.45;36.91;46.13;;
52872;Laerm;40124;52.198;9.902;2023-08-01T00:02:52;40.93;35.36;46.66;;
52872;Laerm;40124;52.198;9.902;2023-08-01T00:05:17;40.37;35.66;46.59;;
52872;Laerm;40124;52.198;9.902;2023-08-01T00:07:42;71.26;35.36;94.03;;
52872;Laerm;40124;52.198;9.902;2023-08-01T00:10:08;41.13;37.12;46.28;;
52872;Laerm;40124;52.198;9.902;2023-08-01T00:12:33;60.40;38.67;81.11;;
52872;Laerm;40124;52.198;9.902;2023-08-01T00:14:58;53.84;36.20;72.72;;
52872;Laerm;40124;52.198;9.902;2023-08-01T00:17:23;40.25;34.31;46.20;;
52872;Laerm;40124;52.198;9.902;2023-08-01T00:19:49;40.04;32.35;46.62;;
52872;Laerm;40124;52.198;9.902;2023-08-01T00:22:14;39.98;34.31;46.40;;
52872;Laerm;40124;52.198;9.902;2023-08-01T00:24:39;56.47;34.69;76.50;;
52872;Laerm;40124;52.198;9.902;2023-08-01T00:27:04;40.85;36.45;46.35;;
52872;Laerm;40124;52.198;9.902;2023-08-01T00:29:29;41.09;36.20;47.16;;
52872;Laerm;40124;52.198;9.902;2023-08-01T00:31:55;41.10;35.66;47.10;;
52872;Laerm;40124;52.198;9.902;2023-08-01T00:34:20;40.18;33.90;46.28;;
52872;Laerm;40124;52.198;9.902;2023-08-01T00:36:45;40.62;35.36;46.63;;
52872;Laerm;40124;52.198;9.902;2023-08-01T00:39:10;40.56;34.31;46.23;;
52872;Laerm;40124;52.198;9.902;2023-08-01T00:41:35;58.26;35.04;78.55;;
52872;Laerm;40124;52.198;9.902;2023-08-01T00:44:00;40.62;34.31;51.90;;
52872;Laerm;40124;52.198;9.902;2023-08-01T00:46:26;42.63;35.66;58.60;;
52872;Laerm;40124;52.198;9.902;2023-08-01T00:48:51;64.99;35.66;87.27;;
52872;Laerm;40124;52.198;9.902;2023-08-01T00:51:17;50.17;35.36;74.40;;
52872;Laerm;40124;52.198;9.902;2023-08-01T00:53:43;43.63;37.32;55.71;;
52872;Laerm;40124;52.198;9.902;2023-08-01T00:56:10;40.59;36.45;46.45;;
52872;Laerm;40124;52.198;9.902;2023-08-01T00:58:35;46.82;36.20;63.97;;
52872;Laerm;40124;52.198;9.902;2023-08-01T01:01:00;41.15;37.12;46.35;;
52872;Laerm;40124;52.198;9.902;2023-08-01T01:03:26;41.12;36.91;46.33;;
52872;Laerm;40124;52.198;9.902;2023-08-01T01:06:00;41.37;36.91;48.93;;
52872;Laerm;40124;52.198;9.902;2023-08-01T01:08:26;50.65;36.91;69.88;;
52872;Laerm;40124;52.198;9.902;2023-08-01T01:10:51;40.37;34.69;46.43;;
52872;Laerm;40124;52.198;9.902;2023-08-01T01:13:16;40.48;34.69;46.52;;
52872;Laerm;40124;52.198;9.902;2023-08-01T01:15:41;40.31;35.59;47.12;;
52872;Laerm;40124;52.198;9.902;2023-08-01T01:18:06;40.62;35.94;46.55;;
52872;Laerm;40124;52.198;9.902;2023-08-01T01:20:34;40.66;35.01;46.57;;
52872;Laerm;40124;52.198;9.902;2023-08-01T01:23:00;59.64;33.90;80.57;;
52872;Laerm;40124;52.198;9.902;2023-08-01T01:25:26;40.04;33.90;46.35;;
52872;Laerm;40124;52.198;9.902;2023-08-01T01:27:52;57.79;35.04;78.02;;
52872;Laerm;40124;52.198;9.902;2023-08-01T01:30:18;58.71;36.20;79.29;;
52872;Laerm;40124;52.198;9.902;2023-08-01T01:32:44;52.56;35.94;73.37;;
52872;Laerm;40124;52.198;9.902;2023-08-01T01:35:09;41.13;35.36;50.55;;
52872;Laerm;40124;52.198;9.902;2023-08-01T01:37:35;41.18;36.45;46.28;;
52872;Laerm;40124;52.198;9.902;2023-08-01T01:40:00;41.01;36.20;46.78;;
52872;Laerm;40124;52.198;9.902;2023-08-01T01:42:25;58.53;37.12;78.10;;
52872;Laerm;40124;52.198;9.902;2023-08-01T01:44:50;60.09;38.81;80.72;;
52872;Laerm;40124;52.198;9.902;2023-08-01T01:47:16;42.17;37.70;53.03;;
52872;Laerm;40124;52.198;9.902;2023-08-01T01:49:41;41.73;35.94;49.02;;
52872;Laerm;40124;52.198;9.902;2023-08-01T01:52:07;56.07;36.20;75.20;;
52872;Laerm;40124;52.198;9.902;2023-08-01T01:54:32;57.62;35.94;77.75;;
52872;Laerm;40124;52.198;9.902;2023-08-01T01:56:57;59.59;36.20;79.78;;
52872;Laerm;40124;52.198;9.902;2023-08-01T01:59:22;40.96;36.20;47.04;;
52872;Laerm;40124;52.198;9.902;2023-08-01T02:01:47;40.81;36.45;50.76;;
52872;Laerm;40124;52.198;9.902;2023-08-01T02:04:12;59.29;37.12;79.76;;
52872;Laerm;40124;52.198;9.902;2023-08-01T02:06:38;61.68;38.37;82.78;;
52872;Laerm;40124;52.198;9.902;2023-08-01T02:09:03;57.87;39.08;77.45;;
52872;Laerm;40124;52.198;9.902;2023-08-01T02:11:29;49.28;42.65;56.82;;
52872;Laerm;40124;52.198;9.902;2023-08-01T02:13:54;59.88;43.14;75.65;;
52872;Laerm;40124;52.198;9.902;2023-08-01T02:16:19;62.45;42.93;80.79;;
52872;Laerm;40124;52.198;9.902;2023-08-01T02:18:44;67.18;42.35;87.76;;
52872;Laerm;40124;52.198;9.902;2023-08-01T02:21:10;60.91;41.22;78.84;;
52872;Laerm;40124;52.198;9.902;2023-08-01T02:23:35;67.78;40.33;88.18;;
52872;Laerm;40124;52.198;9.902;2023-08-01T02:26:02;41.60;37.32;49.45;;
52872;Laerm;40124;52.198;9.902;2023-08-01T02:28:27;59.40;37.32;79.77;;
52872;Laerm;40124;52.198;9.902;2023-08-01T02:30:52;70.89;39.34;90.56;;
52872;Laerm;40124;52.198;9.902;2023-08-01T02:33:17;59.92;38.52;80.55;;
52872;Laerm;40124;52.198;9.902;2023-08-01T02:35:42;63.14;37.32;81.54;;
52872;Laerm;40124;52.198;9.902;2023-08-01T02:38:08;42.34;38.37;53.67;;
52872;Laerm;40124;52.198;9.902;2023-08-01T02:40:33;46.61;38.21;58.17;;
52872;Laerm;40124;52.198;9.902;2023-08-01T02:42:58;61.75;38.05;79.97;;
52872;Laerm;40124;52.198;9.902;2023-08-01T02:45:23;67.24;38.95;84.79;;
52872;Laerm;40124;52.198;9.902;2023-08-01T02:47:48;65.02;38.52;81.79;;
52872;Laerm;40124;52.198;9.902;2023-08-01T02:50:13;69.80;37.52;85.50;;
52872;Laerm;40124;52.198;9.902;2023-08-01T02:52:39;62.68;36.69;79.07;;
52872;Laerm;40124;52.198;9.902;2023-08-01T02:55:04;69.46;37.12;83.87;;
52872;Laerm;40124;52.198;9.902;2023-08-01T02:57:30;41.07;36.91;52.29;;
52872;Laerm;40124;52.198;9.902;2023-08-01T02:59:55;57.41;36.69;78.20;;
52872;Laerm;40124;52.198;9.902;2023-08-01T03:02:20;61.53;37.52;80.45;;
52872;Laerm;40124;52.198;9.902;2023-08-01T03:04:45;60.44;41.89;78.46;;
52872;Laerm;40124;52.198;9.902;2023-08-01T03:07:10;62.66;42.03;83.41;;
52872;Laerm;40124;52.198;9.902;2023-08-01T03:09:35;66.17;42.47;80.77;;
52872;Laerm;40124;52.198;9.902;2023-08-01T03:12:01;66.90;42.22;81.56;;
52872;Laerm;40124;52.198;9.902;2023-08-01T03:14:26;70.39;41.06;89.69;;
52872;Laerm;40124;52.198;9.902;2023-08-01T03:16:51;66.86;41.53;81.15;;
52872;Laerm;40124;52.198;9.902;2023-08-01T03:19:16;64.55;40.03;80.99;;
52872;Laerm;40124;52.198;9.902;2023-08-01T03:21:41;71.10;41.75;84.16;;
52872;Laerm;40124;52.198;9.902;2023-08-01T03:24:07;65.36;40.03;82.61;;
52872;Laerm;40124;52.198;9.902;2023-08-01T03:26:33;65.50;39.21;84.67;;
52872;Laerm;40124;52.198;9.902;2023-08-01T03:28:58;71.00;43.72;89.10;;
52872;Laerm;40124;52.198;9.902;2023-08-01T03:31:24;67.22;40.53;81.36;;
52872;Laerm;40124;52.198;9.902;2023-08-01T03:33:49;69.47;44.58;83.98;;
52872;Laerm;40124;52.198;9.902;2023-08-01T03:36:14;67.29;46.05;81.32;;
52872;Laerm;40124;52.198;9.902;2023-08-01T03:38:39;73.70;46.20;89.86;;
52872;Laerm;40124;52.198;9.902;2023-08-01T03:41:04;73.68;51.04;86.73;;
52872;Laerm;40124;52.198;9.902;2023-08-01T03:43:30;70.66;47.30;85.66;;
52872;Laerm;40124;52.198;9.902;2023-08-01T03:45:55;74.32;53.08;88.99;;
52872;Laerm;40124;52.198;9.902;2023-08-01T03:48:20;71.16;49.74;84.98;;
52872;Laerm;40124;52.198;9.902;2023-08-01T03:50:45;69.23;47.61;81.32;;
52872;Laerm;40124;52.198;9.902;2023-08-01T03:53:10;69.94;47.23;83.48;;
52872;Laerm;40124;52.198;9.902;2023-08-01T03:55:36;71.81;45.57;85.56;;
52872;Laerm;40124;52.198;9.902;2023-08-01T03:58:01;69.83;40.43;83.32;;
52872;Laerm;40124;52.198;9.902;2023-08-01T04:00:26;69.15;41.75;82.30;;
52872;Laerm;40124;52.198;9.902;2023-08-01T04:02:57;65.32;38.52;82.32;;
52872;Laerm;40124;52.198;9.902;2023-08-01T04:05:22;75.80;48.19;90.60;;
52872;Laerm;40124;52.198;9.902;2023-08-01T04:07:49;73.93;41.46;89.05;;
52872;Laerm;40124;52.198;9.902;2023-08-01T04:10:14;68.27;41.22;80.94;;
52872;Laerm;40124;52.198;9.902;2023-08-01T04:12:39;73.73;45.86;88.87;;
52872;Laerm;40124;52.198;9.902;2023-08-01T04:15:04;70.71;42.22;84.23;;
52872;Laerm;40124;52.198;9.902;2023-08-01T04:17:30;71.11;44.23;84.46;;
52872;Laerm;40124;52.198;9.902;2023-08-01T04:19:55;73.69;47.24;88.92;;
52872;Laerm;40124;52.198;9.902;2023-08-01T04:22:20;72.24;44.35;83.11;;
52872;Laerm;40124;52.198;9.902;2023-08-01T04:24:45;70.71;42.09;82.43;;
52872;Laerm;40124;52.198;9.902;2023-08-01T04:27:10;70.39;43.63;82.94;;
52872;Laerm;40124;52.198;9.902;2023-08-01T04:29:35;70.67;43.39;82.62;;
52872;Laerm;40124;52.198;9.902;2023-08-01T04:32:01;69.87;41.68;83.39;;
52872;Laerm;40124;52.198;9.902;2023-08-01T04:34:26;69.06;42.47;81.63;;
52872;Laerm;40124;52.198;9.902;2023-08-01T04:36:51;74.27;44.15;87.83;;
52872;Laerm;40124;52.198;9.902;2023-08-01T04:39:16;71.33;41.89;83.49;;
52872;Laerm;40124;52.198;9.902;2023-08-01T04:41:41;72.12;46.20;84.12;;
52872;Laerm;40124;52.198;9.902;2023-08-01T04:44:06;73.43;45.14;90.23;;
52872;Laerm;40124;52.198;9.902;2023-08-01T04:46:32;74.18;57.64;86.38;;
52872;Laerm;40124;52.198;9.902;2023-08-01T04:48:57;70.98;51.13;82.05;;
52872;Laerm;40124;52.198;9.902;2023-08-01T04:51:22;71.57;43.72;80.69;;
52872;Laerm;40124;52.198;9.902;2023-08-01T04:53:47;71.81;53.16;84.38;;
52872;Laerm;40124;52.198;9.902;2023-08-01T04:56:13;71.01;44.11;83.25;;
52872;Laerm;40124;52.198;9.902;2023-08-01T04:58:38;71.52;45.27;81.73;;
52872;Laerm;40124;52.198;9.902;2023-08-01T05:01:03;71.85;41.46;89.66;;
52872;Laerm;40124;52.198;9.902;2023-08-01T05:03:28;71.94;46.97;84.32;;
52872;Laerm;40124;52.198;9.902;2023-08-01T05:05:54;71.75;51.22;83.74;;
52872;Laerm;40124;52.198;9.902;2023-08-01T05:08:19;71.87;46.71;83.81;;
52872;Laerm;40124;52.198;9.902;2023-08-01T05:10:44;73.27;48.09;87.05;;
52872;Laerm;40124;52.198;9.902;2023-08-01T05:13:09;71.76;45.86;82.53;;
52872;Laerm;40124;52.198;9.902;2023-08-01T05:15:34;71.35;44.76;88.39;;
52872;Laerm;40124;52.198;9.902;2023-08-01T05:17:59;72.76;45.72;83.63;;
52872;Laerm;40124;52.198;9.902;2023-08-01T05:20:25;71.53;46.73;83.73;;
52872;Laerm;40124;52.198;9.902;2023-08-01T05:22:55;71.51;44.39;84.04;;
52872;Laerm;40124;52.198;9.902;2023-08-01T05:25:20;71.72;46.40;83.62;;
52872;Laerm;40124;52.198;9.902;2023-08-01T05:27:45;71.07;45.77;83.15;;
52872;Laerm;40124;52.198;9.902;2023-08-01T05:30:11;74.13;47.76;87.43;;
52872;Laerm;40124;52.198;9.902;2023-08-01T05:32:36;71.34;44.80;83.81;;
52872;Laerm;40124;52.198;9.902;2023-08-01T05:35:01;69.14;42.53;81.49;;
52872;Laerm;40124;52.198;9.902;2023-08-01T05:37:26;74.56;55.70;88.33;;
52872;Laerm;40124;52.198;9.902;2023-08-01T05:39:51;73.77;51.35;86.46;;
52872;Laerm;40124;52.198;9.902;2023-08-01T05:42:17;73.50;57.02;87.52;;
52872;Laerm;40124;52.198;9.902;2023-08-01T05:44:42;71.14;44.27;83.35;;
52872;Laerm;40124;52.198;9.902;2023-08-01T05:47:07;75.22;45.75;92.65;;
52872;Laerm;40124;52.198;9.902;2023-08-01T05:49:32;70.91;49.44;83.92;;
52872;Laerm;40124;52.198;9.902;2023-08-01T05:51:57;70.52;49.02;83.96;;
52872;Laerm;40124;52.198;9.902;2023-08-01T05:54:22;72.52;47.86;88.08;;
52872;Laerm;40124;52.198;9.902;2023-08-01T05:56:48;70.39;45.66;83.61;;
52872;Laerm;40124;52.198;9.902;2023-08-01T05:59:13;67.59;43.09;80.96;;
52872;Laerm;40124;52.198;9.902;2023-08-01T06:01:38;71.87;46.05;86.46;;
52872;Laerm;40124;52.198;9.902;2023-08-01T06:04:03;70.47;42.82;85.85;;
52872;Laerm;40124;52.198;9.902;2023-08-01T06:06:28;70.82;44.76;85.28;;
52872;Laerm;40124;52.198;9.902;2023-08-01T06:08:54;70.42;43.44;83.88;;
52872;Laerm;40124;52.198;9.902;2023-08-01T06:11:19;69.10;44.58;81.32;;
52872;Laerm;40124;52.198;9.902;2023-08-01T06:13:44;69.52;48.82;81.52;;
52872;Laerm;40124;52.198;9.902;2023-08-01T06:16:09;68.29;45.83;80.84;;
52872;Laerm;40124;52.198;9.902;2023-08-01T06:18:36;67.40;45.11;79.44;;
52872;Laerm;40124;52.198;9.902;2023-08-01T06:21:01;70.88;45.17;85.19;;
52872;Laerm;40124;52.198;9.902;2023-08-01T06:23:27;67.70;41.75;81.19;;
52872;Laerm;40124;52.198;9.902;2023-08-01T06:25:52;72.07;42.03;89.72;;
52872;Laerm;40124;52.198;9.902;2023-08-01T06:28:17;71.37;48.16;88.00;;
52872;Laerm;40124;52.198;9.902;2023-08-01T06:30:42;71.21;43.54;83.48;;
52872;Laerm;40124;52.198;9.902;2023-08-01T06:33:08;70.49;45.04;87.58;;
52872;Laerm;40124;52.198;9.902;2023-08-01T06:35:33;69.44;44.47;82.73;;
52872;Laerm;40124;52.198;9.902;2023-08-01T06:37:58;67.17;42.41;82.40;;
52872;Laerm;40124;52.198;9.902;2023-08-01T06:40:23;70.90;47.61;84.63;;
52872;Laerm;40124;52.198;9.902;2023-08-01T06:42:48;68.30;45.36;79.96;;
52872;Laerm;40124;52.198;9.902;2023-08-01T06:45:14;75.49;49.81;96.95;;
52872;Laerm;40124;52.198;9.902;2023-08-01T06:47:39;67.46;42.03;82.03;;
52872;Laerm;40124;52.198;9.902;2023-08-01T06:50:04;68.03;44.31;80.37;;
52872;Laerm;40124;52.198;9.902;2023-08-01T06:52:30;67.03;42.22;80.09;;
52872;Laerm;40124;52.198;9.902;2023-08-01T06:54:55;69.00;44.90;81.46;;
52872;Laerm;40124;52.198;9.902;2023-08-01T06:57:20;68.34;47.28;81.97;;
52872;Laerm;40124;52.198;9.902;2023-08-01T06:59:45;68.46;45.94;80.13;;
52872;Laerm;40124;52.198;9.902;2023-08-01T07:02:10;69.43;47.08;83.42;;
52872;Laerm;40124;52.198;9.902;2023-08-01T07:04:35;70.28;40.98;88.48;;
52872;Laerm;40124;52.198;9.902;2023-08-01T07:07:01;69.83;44.97;82.87;;
52872;Laerm;40124;52.198;9.902;2023-08-01T07:09:27;71.43;51.17;82.51;;
52872;Laerm;40124;52.198;9.902;2023-08-01T07:11:52;71.35;46.50;85.71;;
52872;Laerm;40124;52.198;9.902;2023-08-01T07:14:17;70.12;44.65;87.40;;
52872;Laerm;40124;52.198;9.902;2023-08-01T07:16:42;69.36;46.13;79.92;;
52872;Laerm;40124;52.198;9.902;2023-08-01T07:19:07;73.88;43.44;87.04;;
52872;Laerm;40124;52.198;9.902;2023-08-01T07:21:32;71.48;49.39;90.85;;
52872;Laerm;40124;52.198;9.902;2023-08-01T07:23:58;72.63;43.44;90.24;;
52872;Laerm;40124;52.198;9.902;2023-08-01T07:26:23;73.12;41.82;91.68;;
52872;Laerm;40124;52.198;9.902;2023-08-01T07:28:48;68.58;45.14;80.29;;
52872;Laerm;40124;52.198;9.902;2023-08-01T07:31:13;71.42;45.54;86.41;;
52872;Laerm;40124;52.198;9.902;2023-08-01T07:33:39;71.64;44.80;86.48;;
52872;Laerm;40124;52.198;9.902;2023-08-01T07:36:04;68.23;43.58;78.62;;
52872;Laerm;40124;52.198;9.902;2023-08-01T07:38:29;67.67;44.97;81.02;;
52872;Laerm;40124;52.198;9.902;2023-08-01T07:40:56;68.13;43.24;90.21;;
52872;Laerm;40124;52.198;9.902;2023-08-01T07:43:22;69.89;45.80;79.60;;
52872;Laerm;40124;52.198;9.902;2023-08-01T07:45:48;67.86;48.85;84.30;;
52872;Laerm;40124;52.198;9.902;2023-08-01T07:48:15;70.59;44.27;83.35;;
52872;Laerm;40124;52.198;9.902;2023-08-01T07:50:40;71.07;43.39;89.99;;
52872;Laerm;40124;52.198;9.902;2023-08-01T07:53:06;69.63;51.07;86.22;;
52872;Laerm;40124;52.198;9.902;2023-08-01T07:55:33;68.22;43.77;85.76;;
52872;Laerm;40124;52.198;9.902;2023-08-01T07:57:58;67.76;43.77;83.36;;
52872;Laerm;40124;52.198;9.902;2023-08-01T08:00:23;68.49;45.04;81.21;;
52872;Laerm;40124;52.198;9.902;2023-08-01T08:02:48;71.96;47.34;87.15;;
52872;Laerm;40124;52.198;9.902;2023-08-01T08:05:14;68.68;47.54;82.18;;
52872;Laerm;40124;52.198;9.902;2023-08-01T08:07:39;65.15;43.90;79.78;;
52872;Laerm;40124;52.198;9.902;2023-08-01T08:10:04;69.91;45.23;84.56;;
52872;Laerm;40124;52.198;9.902;2023-08-01T08:12:30;71.04;47.74;86.84;;
52872;Laerm;40124;52.198;9.902;2023-08-01T08:14:55;66.65;41.96;81.29;;
52872;Laerm;40124;52.198;9.902;2023-08-01T08:17:21;67.66;42.22;82.62;;
52872;Laerm;40124;52.198;9.902;2023-08-01T08:19:46;69.70;48.85;82.99;;
52872;Laerm;40124;52.198;9.902;2023-08-01T08:22:11;68.70;46.50;82.89;;
52872;Laerm;40124;52.198;9.902;2023-08-01T08:24:36;69.41;51.05;84.50;;
52872;Laerm;40124;52.198;9.902;2023-08-01T08:27:01;67.93;48.29;81.33;;
52872;Laerm;40124;52.198;9.902;2023-08-01T08:29:26;67.85;42.22;80.78;;
52872;Laerm;40124;52.198;9.902;2023-08-01T08:31:52;69.01;43.09;84.50;;
52872;Laerm;40124;52.198;9.902;2023-08-01T08:34:17;68.23;45.36;84.43;;
52872;Laerm;40124;52.198;9.902;2023-08-01T08:36:42;67.08;42.82;81.02;;
52872;Laerm;40124;52.198;9.902;2023-08-01T08:39:07;66.58;43.80;79.84;;
52872;Laerm;40124;52.198;9.902;2023-08-01T08:41:45;71.35;46.76;84.37;;
52872;Laerm;40124;52.198;9.902;2023-08-01T08:44:10;69.82;43.49;83.01;;
52872;Laerm;40124;52.198;9.902;2023-08-01T08:46:40;65.30;41.89;77.67;;
52872;Laerm;40124;52.198;9.902;2023-08-01T08:49:06;67.08;42.53;82.84;;
52872;Laerm;40124;52.198;9.902;2023-08-01T08:51:31;70.67;46.18;86.62;;
52872;Laerm;40124;52.198;9.902;2023-08-01T08:53:57;68.94;48.05;79.76;;
52872;Laerm;40124;52.198;9.902;2023-08-01T08:56:22;69.43;43.68;83.34;;
52872;Laerm;40124;52.198;9.902;2023-08-01T08:58:48;66.70;42.82;78.84;;
52872;Laerm;40124;52.198;9.902;2023-08-01T09:01:14;68.30;49.83;80.18;;
52872;Laerm;40124;52.198;9.902;2023-08-01T09:03:39;66.66;41.22;81.08;;
52872;Laerm;40124;52.198;9.902;2023-08-01T09:06:14;66.57;42.53;79.40;;
52872;Laerm;40124;52.198;9.902;2023-08-01T09:08:40;64.39;41.68;79.06;;
52872;Laerm;40124;52.198;9.902;2023-08-01T09:11:09;65.12;41.82;78.74;;
52872;Laerm;40124;52.198;9.902;2023-08-01T09:13:34;66.90;42.29;78.70;;
52872;Laerm;40124;52.198;9.902;2023-08-01T09:16:01;68.00;43.68;79.44;;
52872;Laerm;40124;52.198;9.902;2023-08-01T09:18:27;68.23;44.83;81.73;;
52872;Laerm;40124;52.198;9.902;2023-08-01T09:20:53;67.37;42.53;80.09;;
52872;Laerm;40124;52.198;9.902;2023-08-01T09:23:18;66.31;44.43;77.95;;
52872;Laerm;40124;52.198;9.902;2023-08-01T09:25:43;66.47;44.39;78.57;;
52872;Laerm;40124;52.198;9.902;2023-08-01T09:28:18;69.70;50.01;87.40;;
52872;Laerm;40124;52.198;9.902;2023-08-01T09:30:50;66.12;40.89;80.11;;
52872;Laerm;40124;52.198;9.902;2023-08-01T09:33:16;69.17;45.57;83.81;;
52872;Laerm;40124;52.198;9.902;2023-08-01T09:35:41;71.29;44.07;88.03;;
52872;Laerm;40124;52.198;9.902;2023-08-01T09:38:07;71.23;47.34;90.27;;
52872;Laerm;40124;52.198;9.902;2023-08-01T09:40:36;67.46;42.41;84.81;;
52872;Laerm;40124;52.198;9.902;2023-08-01T09:43:01;67.41;44.27;79.78;;
52872;Laerm;40124;52.198;9.902;2023-08-01T09:45:26;66.31;44.69;78.77;;
52872;Laerm;40124;52.198;9.902;2023-08-01T09:47:52;67.81;47.36;84.83;;
52872;Laerm;40124;52.198;9.902;2023-08-01T09:50:20;68.60;44.51;84.69;;
52872;Laerm;40124;52.198;9.902;2023-08-01T09:52:46;69.72;45.45;84.02;;
52872;Laerm;40124;52.198;9.902;2023-08-01T09:55:27;68.91;45.40;83.21;;
52872;Laerm;40124;52.198;9.902;2023-08-01T09:57:57;68.05;44.43;83.79;;
52872;Laerm;40124;52.198;9.902;2023-08-01T10:00:22;67.12;43.39;79.04;;
52872;Laerm;40124;52.198;9.902;2023-08-01T10:02:47;69.38;45.17;83.22;;
52872;Laerm;40124;52.198;9.902;2023-08-01T10:05:15;68.71;48.05;81.51;;
52872;Laerm;40124;52.198;9.902;2023-08-01T10:07:41;69.17;45.57;83.29;;
52872;Laerm;40124;52.198;9.902;2023-08-01T10:10:07;66.01;41.96;82.22;;
52872;Laerm;40124;52.198;9.902;2023-08-01T10:12:32;64.59;43.29;79.45;;
52872;Laerm;40124;52.198;9.902;2023-08-01T10:14:58;68.50;43.39;84.48;;
52872;Laerm;40124;52.198;9.902;2023-08-01T10:17:23;68.18;45.30;82.38;;
52872;Laerm;40124;52.198;9.902;2023-08-01T10:19:50;70.92;44.15;89.02;;
52872;Laerm;40124;52.198;9.902;2023-08-01T10:22:16;66.48;43.90;79.56;;
52872;Laerm;40124;52.198;9.902;2023-08-01T10:24:42;70.51;44.31;86.36;;
52872;Laerm;40124;52.198;9.902;2023-08-01T10:27:11;69.61;43.29;88.38;;
52872;Laerm;40124;52.198;9.902;2023-08-01T10:29:37;67.01;44.27;81.71;;
52872;Laerm;40124;52.198;9.902;2023-08-01T10:32:02;70.69;46.02;86.97;;
52872;Laerm;40124;52.198;9.902;2023-08-01T10:34:28;77.31;43.44;98.45;;
52872;Laerm;40124;52.198;9.902;2023-08-01T10:36:56;69.34;44.15;79.89;;
52872;Laerm;40124;52.198;9.902;2023-08-01T10:39:22;68.69;44.27;82.81;;
52872;Laerm;40124;52.198;9.902;2023-08-01T10:41:55;70.12;51.80;82.27;;
52872;Laerm;40124;52.198;9.902;2023-08-01T10:44:21;69.10;47.83;81.93;;
52872;Laerm;40124;52.198;9.902;2023-08-01T10:49:11;67.04;44.43;79.21;;
52872;Laerm;40124;52.198;9.902;2023-08-01T10:51:36;72.57;47.77;88.22;;
52872;Laerm;40124;52.198;9.902;2023-08-01T10:54:02;67.71;47.14;79.93;;
52872;Laerm;40124;52.198;9.902;2023-08-01T10:56:27;69.52;49.06;79.39;;
52872;Laerm;40124;52.198;9.902;2023-08-01T10:58:53;67.18;44.80;78.26;;
52872;Laerm;40124;52.198;9.902;2023-08-01T11:01:18;70.29;45.20;84.22;;
52872;Laerm;40124;52.198;9.902;2023-08-01T11:03:43;69.76;50.71;81.24;;
52872;Laerm;40124;52.198;9.902;2023-08-01T11:06:09;68.75;45.51;84.58;;
52872;Laerm;40124;52.198;9.902;2023-08-01T11:08:37;68.71;47.17;81.22;;
52872;Laerm;40124;52.198;9.902;2023-08-01T11:11:03;70.40;43.94;88.06;;
52872;Laerm;40124;52.198;9.902;2023-08-01T11:13:29;67.06;43.29;79.55;;
52872;Laerm;40124;52.198;9.902;2023-08-01T11:15:54;70.03;43.77;85.67;;
52872;Laerm;40124;52.198;9.902;2023-08-01T11:18:21;70.07;43.86;80.16;;
52872;Laerm;40124;52.198;9.902;2023-08-01T11:20:46;71.28;48.76;85.06;;
52872;Laerm;40124;52.198;9.902;2023-08-01T11:23:11;70.34;49.80;83.68;;
52872;Laerm;40124;52.198;9.902;2023-08-01T11:25:37;69.62;44.90;82.91;;
52872;Laerm;40124;52.198;9.902;2023-08-01T11:28:03;68.89;45.86;79.20;;
52872;Laerm;40124;52.198;9.902;2023-08-01T11:30:30;73.53;42.88;94.54;;
52872;Laerm;40124;52.198;9.902;2023-08-01T11:32:56;68.98;44.51;82.09;;
52872;Laerm;40124;52.198;9.902;2023-08-01T11:35:21;72.83;45.69;89.57;;
52872;Laerm;40124;52.198;9.902;2023-08-01T11:37:47;67.55;44.31;79.52;;
52872;Laerm;40124;52.198;9.902;2023-08-01T11:40:12;68.98;43.29;83.36;;
52872;Laerm;40124;52.198;9.902;2023-08-01T11:42:37;67.09;44.01;80.72;;
52872;Laerm;40124;52.198;9.902;2023-08-01T11:45:09;69.18;44.90;81.13;;
52872;Laerm;40124;52.198;9.902;2023-08-01T11:47:35;76.68;43.09;96.94;;
52872;Laerm;40124;52.198;9.902;2023-08-01T11:50:00;68.19;45.36;80.99;;
52872;Laerm;40124;52.198;9.902;2023-08-01T11:52:25;69.24;43.14;84.35;;
52872;Laerm;40124;52.198;9.902;2023-08-01T11:54:51;70.52;43.54;85.96;;
52872;Laerm;40124;52.198;9.902;2023-08-01T11:57:16;67.10;43.29;81.45;;
52872;Laerm;40124;52.198;9.902;2023-08-01T11:59:48;73.02;48.29;87.91;;
52872;Laerm;40124;52.198;9.902;2023-08-01T12:02:20;71.88;50.83;88.93;;
52872;Laerm;40124;52.198;9.902;2023-08-01T12:04:45;68.44;43.72;79.65;;
52872;Laerm;40124;52.198;9.902;2023-08-01T12:07:14;72.84;48.05;88.28;;
52872;Laerm;40124;52.198;9.902;2023-08-01T12:09:40;70.92;45.20;84.58;;
52872;Laerm;40124;52.198;9.902;2023-08-01T12:12:05;68.55;45.14;80.06;;
52872;Laerm;40124;52.198;9.902;2023-08-01T12:14:30;69.34;46.45;81.78;;
52872;Laerm;40124;52.198;9.902;2023-08-01T12:16:55;69.57;44.15;81.83;;
52872;Laerm;40124;52.198;9.902;2023-08-01T12:19:20;68.68;44.97;82.92;;
52872;Laerm;40124;52.198;9.902;2023-08-01T12:21:46;69.56;45.04;80.56;;
52872;Laerm;40124;52.198;9.902;2023-08-01T12:24:12;69.89;43.99;83.67;;
52872;Laerm;40124;52.198;9.902;2023-08-01T12:26:37;71.06;43.39;89.01;;
52872;Laerm;40124;52.198;9.902;2023-08-01T12:29:02;70.53;45.27;79.85;;
52872;Laerm;40124;52.198;9.902;2023-08-01T12:31:27;69.59;43.09;79.12;;
52872;Laerm;40124;52.198;9.902;2023-08-01T12:33:53;69.74;43.49;81.49;;
52872;Laerm;40124;52.198;9.902;2023-08-01T12:36:18;72.99;44.07;91.55;;
52872;Laerm;40124;52.198;9.902;2023-08-01T12:38:44;65.68;45.42;77.91;;
52872;Laerm;40124;52.198;9.902;2023-08-01T12:41:09;73.00;49.71;87.04;;
52872;Laerm;40124;52.198;9.902;2023-08-01T12:43:34;69.71;43.72;83.72;;
52872;Laerm;40124;52.198;9.902;2023-08-01T12:45:59;72.28;47.46;85.75;;
52872;Laerm;40124;52.198;9.902;2023-08-01T12:48:25;71.85;49.18;82.89;;
52872;Laerm;40124;52.198;9.902;2023-08-01T12:50:50;71.94;52.02;86.67;;
52872;Laerm;40124;52.198;9.902;2023-08-01T12:53:16;68.75;49.41;79.81;;
52872;Laerm;40124;52.198;9.902;2023-08-01T12:55:45;67.78;48.18;79.62;;
52872;Laerm;40124;52.198;9.902;2023-08-01T12:58:10;70.12;45.83;80.37;;
52872;Laerm;40124;52.198;9.902;2023-08-01T13:00:35;71.86;46.95;86.77;;
52872;Laerm;40124;52.198;9.902;2023-08-01T13:03:00;70.26;44.15;82.59;;
52872;Laerm;40124;52.198;9.902;2023-08-01T13:05:26;70.28;49.34;82.30;;
52872;Laerm;40124;52.198;9.902;2023-08-01T13:07:51;73.28;49.77;90.92;;
52872;Laerm;40124;52.198;9.902;2023-08-01T13:10:16;69.20;46.10;80.04;;
52872;Laerm;40124;52.198;9.902;2023-08-01T13:12:41;69.06;46.76;79.34;;
52872;Laerm;40124;52.198;9.902;2023-08-01T13:15:07;70.09;50.56;81.74;;
52872;Laerm;40124;52.198;9.902;2023-08-01T13:17:32;72.87;47.24;90.59;;
52872;Laerm;40124;52.198;9.902;2023-08-01T13:19:57;70.42;46.43;81.15;;
52872;Laerm;40124;52.198;9.902;2023-08-01T13:22:22;70.06;45.80;81.14;;
52872;Laerm;40124;52.198;9.902;2023-08-01T13:24:48;70.13;48.18;80.13;;
52872;Laerm;40124;52.198;9.902;2023-08-01T13:27:13;68.68;48.80;81.00;;
52872;Laerm;40124;52.198;9.902;2023-08-01T13:29:38;72.99;44.94;90.99;;
52872;Laerm;40124;52.198;9.902;2023-08-01T13:32:05;70.94;45.25;85.26;;
52872;Laerm;40124;52.198;9.902;2023-08-01T13:34:30;69.22;42.82;82.87;;
52872;Laerm;40124;52.198;9.902;2023-08-01T13:36:55;68.81;44.65;78.87;;